Search for airport 
image banner adimage banner ad
image banner ad

EKFA - Frodba

Located in Frodba, Faroe Islands

ICAO - EKFA, IATA -

Data provided by Airmate  

General information

Coordinates: N61°32'37" W6°46'28"
Elevation is 77 feet MSL.
Magnetic variation is -8.0° East
View others Airports in (unassigned)

Operational data

Open for public use
Current time UTC:
Current local time:
Weather at : EKVG - Vagar ( 64 km )
METAR: EKVG 231020Z AUTO 33010KT 9999 FEW018/// SCT021/// 01/M00 Q0985
TAF: TAF EKVG 230819Z 2309/2318 33012KT 9999 SCT015 BKN025 TEMPO 2309/2311 1500 SHSNRA BKN010CB
View NOTAMs / SUP AIP / TFR affecting this airport [VIEW]
Communications frequencies: [VIEW]

Runways:

Airport contact information

Address: Frodba Faroe Islands

Satellite view of EKFA